Milford, Utah Weather observations

Data are for observation ending at time listed.
 Day   Time    Ave.   Ave.  Ave.  Vector   Max.   Stn.    Total    Solar   Ave.  
  of    of     Air    Rel.  Wind   Wind    Wind   Baro.  Precip.   Rad.    Soil  
Year   Day     Temp.  Hum.  Speed  Dir.    Gust   Pres.                    Temp. 
2015   (MST)    F      %     mph   deg.    mph     mb.     in.     W/m2     F   
------------------------------------------------------------------------------
  31   13:10   38.4    90    5.8    13     10.2   844.3    0.00     242    99999.0
  31   13:20   38.9    88    6.1    13     12.8   844.3    0.00     272    99999.0
  31   13:30   39.8    86    5.6    14     13.4   844.4    0.00     228    99999.0
  31   13:40   39.5    82    7.9    16     12.9   844.4    0.00     140    99999.0
  31   13:50   39.8    80    8.5    18     15.0   844.4    0.00     177    99999.0
  31   14:00   40.1    80    9.0    15     16.5   844.5    0.00     160    99999.0
  31   14:10   39.9    79    9.5    13     15.1   844.6    0.00     204    99999.0
  31   14:20   40.6    79    9.0    15     15.1   844.7    0.00     268    99999.0
  31   14:30   40.7    80    9.2    22     14.9   844.8    0.00     241    99999.0
  31   14:40   40.8    79    8.1    21     13.2   844.9    0.00     204    99999.0
  31   14:50   40.5    78    8.7    21     13.5   845.0    0.00     164    99999.0
  31   15:00   40.7    78    6.7    16     11.4   845.1    0.00     159    99999.0
  31   15:10   40.6    77    7.0    19     11.1   845.0    0.00     156    99999.0
  31   15:20   40.9    76    7.0    22     10.7   845.0    0.00     191    99999.0
  31   15:30   41.3    74    6.5    20     12.1   845.1    0.00     159    99999.0
  31   15:40   41.3    72    6.5    23     11.2   845.2    0.00     123    99999.0
  31   15:50   41.5    70    5.8    24      9.1   845.2    0.00     145    99999.0
  31   16:00   41.5    70    6.0    24      9.6   845.1    0.00     155    99999.0
  31   16:10   41.7    69    5.4    28      8.6   845.0    0.00     228    99999.0
  31   16:20   42.2    67    5.3    15      9.0   845.1    0.00     253    99999.0
  31   16:30   42.4    66    5.6    26      9.8   845.2    0.00     217    99999.0
  31   16:40   42.2    66    5.5    21      8.3   845.3    0.00      60    99999.0
  31   16:50   42.2    67    3.5    16      8.0   845.2    0.00      43    99999.0
  31   17:00   42.1    68    3.2    16      7.6   845.1    0.00      43    99999.0
  31   17:10   42.0    68    3.0     9      6.1   845.1    0.00      32    99999.0
  31   17:20   41.9    69    2.7     7      7.3   845.2    0.00      31    99999.0
  31   17:30   41.5    70    2.0     2      5.8   845.4    0.00      19    99999.0
  31   17:40   40.9    72    1.3   360      4.4   845.4    0.00      12    99999.0
  31   17:50   40.8    74    1.3     3      3.9   845.6    0.00       7    99999.0
  31   18:00   40.9    75    2.2    11      3.9   845.6    0.00       2    99999.0
  31   18:10   40.7    75    2.2    11      4.5   845.6    0.00       0    99999.0
  31   18:20   40.3    76    0.4   358      2.3   845.4    0.00       0    99999.0
  31   18:30   39.6    76    0.6   309      1.8   845.5    0.00       0    99999.0
  31   18:40   39.3    78    0.9   305      2.2   845.5    0.00       0    99999.0
  31   18:50   39.0    79    1.0   302      1.9   845.6    0.00       0    99999.0
  31   19:00   38.5    81    0.6   332      2.9   845.7    0.00       0    99999.0
  31   19:10   38.3    81    0.5   344      3.1   845.7    0.00       0    99999.0
  31   19:20   38.4    80    0.4    15      2.0   845.8    0.00       0    99999.0
  31   19:30   38.4    80    0.3     9      1.8   845.8    0.00       0    99999.0
  31   19:40   37.9    80    0.8    72      3.6   845.9    0.00       0    99999.0
  31   19:50   36.2    81    0.2   269      1.4   846.0    0.00       0    99999.0
  31   20:00   35.9    83    0.3    17      1.7   846.0    0.00       0    99999.0
  31   20:10   35.6    84    0.1    64      2.3   845.9    0.00       0    99999.0
  31   20:20   34.5    85    1.1    43      3.5   845.8    0.00       0    99999.0
  31   20:30   33.8    86    0.5    15      2.6   845.8    0.00       0    99999.0
  31   20:40   33.5    87    0.5   312      1.8   845.8    0.00       0    99999.0
  31   20:50   33.4    87    1.2   304      2.8   845.9    0.00       0    99999.0
  31   21:00   33.5    88    1.3   305      2.7   846.0    0.00       0    99999.0
  31   21:10   33.0    88    1.6   303      2.3   846.0    0.00       0    99999.0
  31   21:20   32.7    88    1.4   306      3.1   846.2    0.00       0    99999.0
  31   21:30   32.3    89    1.7   294      2.2   846.2    0.00       0    99999.0
  31   21:40   32.2    89    0.6   307      2.4   846.2    0.00       0    99999.0
  31   21:50   32.2    89    0.1   308      1.5   846.2    0.00       0    99999.0
  31   22:00   31.7    89    0.0     0      0.0   846.2    0.00       0    99999.0
  31   22:10   31.1    90    1.0   296      2.1   846.2    0.00       0    99999.0
  31   22:20   30.7    90    1.6   287      2.3   846.2    0.00       0    99999.0
  31   22:30   30.5    90    1.1   288      1.8   846.3    0.00       0    99999.0
  31   22:40   30.7    90    1.7   288      2.4   846.3    0.00       0    99999.0
  31   22:50   30.5    91    1.5   284      2.2   846.5    0.00       0    99999.0
  31   23:00   30.6    91    1.5   285      2.2   846.6    0.00       0    99999.0
  31   23:10   30.8    91    1.4   288      2.6   846.6    0.00       0    99999.0
  31   23:20   30.5    91    0.6   304      1.6   846.7    0.00       0    99999.0
  31   23:30   30.2    91    0.2   318      1.3   846.8    0.00       0    99999.0
  31   23:40   30.2    91    0.7   332      1.8   846.8    0.00       0    99999.0
  31   23:50   29.7    91    0.2    37      1.8   846.9    0.00       0    99999.0
  32    0:00   29.2    91    0.7    39      2.6   846.9    0.00       0    99999.0
  32    0:10   28.9    91    0.6    11      1.8   847.0    0.00       0    99999.0
  32    0:20   28.4    92    0.2     8      1.9   847.0    0.00       0    50.3
  32    0:30   28.3    92    0.4   310      1.5   847.1    0.00       0    99999.0
  32    0:40   29.0    92    0.5   318      1.4   847.1    0.00       0    99999.0
  32    0:50   29.1    92    0.9   292      2.6   847.1    0.00       0    99999.0
  32    1:00   28.3    92    1.1   290      1.8   847.1    0.00       0    99999.0
  32    1:10   28.4    92    1.0   314      1.8   847.0    0.00       0    99999.0
  32    1:20   28.8    92    1.7   294      2.8   847.0    0.00       0    99999.0
  32    1:30   28.4    92    0.5   294      2.5   847.0    0.00       0    99999.0
  32    1:40   28.3    92    0.0     0      0.0   847.0    0.00       0    99999.0
  32    1:50   27.9    92    0.0     0      0.0   847.0    0.00       0    99999.0
  32    2:00   27.7    92    0.0     0      0.0   846.8    0.00       0    99999.0
  32    2:10   27.1    92    0.9   169      3.8   846.8    0.00       0    99999.0
  32    2:20   26.0    92    0.0   199      0.7   846.9    0.00       0    99999.0
  32    2:30   26.0    93    0.0     0      0.0   846.9    0.00       0    99999.0
  32    2:40   26.0    93    0.0     0      0.0   846.9    0.00       0    99999.0
  32    2:50   26.2    93    0.5   199      2.0   846.8    0.00       0    99999.0
  32    3:00   26.1    93    0.0     0      0.0   846.8    0.00       0    99999.0
  32    3:10   26.2    93    0.0     0      0.0   846.9    0.00       0    99999.0
  32    3:20   26.2    93    0.0     0      0.0   846.9    0.00       0    99999.0
  32    3:30   26.5    93    0.0     0      0.0   847.1    0.00       0    99999.0
  32    3:40   26.0    93    0.1   292      1.4   847.2    0.00       0    99999.0
  32    3:50   25.6    93    0.7   291      1.2   847.3    0.00       0    99999.0
  32    4:00   25.5    93    0.0     0      0.0   847.3    0.00       0    99999.0
  32    4:10   25.7    93    0.4   290      1.9   847.4    0.00       0    99999.0
  32    4:20   26.3    93    1.4   260      2.1   847.3    0.00       0    99999.0
  32    4:30   26.0    93    1.8   249      2.9   847.3    0.00       0    99999.0
  32    4:40   26.4    94    1.5   261      2.9   847.3    0.00       0    99999.0
  32    4:50   26.7    93    0.5   278      1.3   847.4    0.00       0    99999.0
  32    5:00   25.2    93    0.8   159      2.5   847.5    0.00       1    99999.0
  32    5:10   23.0    93    1.4   192      2.4   847.6    0.00       0    51.2
  32    5:20   22.9    94    1.2   209      2.4   847.7    0.00       0    99999.0
  32    5:30   23.3    94    1.0   205      2.5   847.7    0.00       1    99999.0
  32    5:40   23.9    94    0.4   236      1.1   847.7    0.00       0    99999.0
  32    5:50   24.7    94    0.2   249      1.3   847.8    0.00       0    99999.0
  32    6:00   25.0    94    1.1   266      2.0   847.9    0.00       0    99999.0
  32    6:10   23.7    94    1.9   272      2.5   847.9    0.00       0    99999.0
  32    6:20   23.4    94    1.8   275      2.7   848.0    0.00       0    99999.0
  32    6:30   23.6    94    0.2   266      1.7   848.0    0.00       0    99999.0
  32    6:40   23.2    94    0.0     0      0.0   848.0    0.00       0    99999.0
  32    6:50   22.5    94    0.0     0      0.0   848.0    0.00       0    99999.0
  32    7:00   22.9    94    0.0     0      0.0   848.1    0.00       0    99999.0
  32    7:10   22.8    94    0.0     0      0.0   848.1    0.00       0    99999.0
  32    7:20   22.3    94    0.0     0      0.0   848.0    0.00       0    99999.0
  32    7:30   21.9    94    0.0     0      0.0   848.0    0.00       0    99999.0
  32    7:40   21.8    94    0.4   189      1.4   848.0    0.00       3    99999.0
  32    7:50   21.8    94    0.7   189      1.0   848.0    0.00       4    99999.0
  32    8:00   21.5    94    1.6   186      3.2   848.0    0.00       7    99999.0
  32    8:10   21.4    94    1.4   193      2.5   848.1    0.00      17    99999.0
  32    8:20   22.3    94    1.2   194      2.0   848.1    0.00      37    99999.0
  32    8:30   24.0    94    1.5   187      2.4   848.2    0.00      55    99999.0
  32    8:40   25.5    94    1.4   183      2.6   848.4    0.00      77    99999.0
  32    8:50   26.3    93    2.0   166      2.9   848.7    0.00     103    99999.0
  32    9:00   27.6    93    1.9   184      3.8   848.9    0.00     129    99999.0
  32    9:10   29.1    92    1.9   176      3.7   849.1    0.00     154    47.9
  32    9:20   30.4    91    2.3   180      4.1   849.3    0.00     185    99999.0
  32    9:30   31.2    90    2.8   171      4.7   849.6    0.00     211    48.8
  32    9:40   31.3    89    3.1   158      4.4   849.8    0.00     270    50.0
  32    9:50   31.8    88    2.8   165      3.9   849.9    0.00     296    99999.0
  32   10:00   32.7    87    3.3   166      5.3   850.2    0.00     318    50.5
  32   10:10   33.1    86    4.4   162      6.4   850.3    0.00     339    99999.0
  32   10:20   33.8    85    4.3   163      6.4   850.5    0.00     359    52.2
  32   10:30   34.4    84    4.6   163      7.6   850.6    0.00     378    99999.0
  32   10:40   35.4    83    3.7   163      5.7   850.7    0.00     396    99999.0
  32   10:50   36.4    81    4.4   166      6.3   850.9    0.00     411    99999.0
  32   11:00   37.1    79    5.2   162      7.3   851.1    0.00     415    99999.0
  32   11:10   38.3    77    4.5   163      7.7   851.3    0.00     430    99999.0
  32   11:20   39.0    76    4.7   174      7.5   851.4    0.00     443    99999.0
  32   11:30   39.5    75    4.6   164      7.0   851.5    0.00     455    54.8
  32   11:40   40.4    73    4.6   169      7.7   851.5    0.00     466    99999.0
  32   11:50   41.0    71    4.2   158      6.6   851.5    0.00     475    99999.0
  32   12:00   41.7    69    4.3   161      6.4   851.5    0.00     485    99999.0
  32   12:10   42.6    65    3.9   154      6.4   851.4    0.00     492    99999.0
  32   12:20   43.5    61    3.0   160      6.0   851.4    0.00     498    99999.0
  32   12:30   44.9    58    2.4   176      5.6   851.4    0.00     502    99999.0
  32   12:40   45.0    56    2.8   162      6.1   851.4    0.00     505    99999.0
  32   12:50   45.2    56    4.1   155      6.2   851.4    0.00     506    99999.0
  32   13:00   45.5    53    3.1   144      5.8   851.4    0.00     506    99999.0

Return to Milford, Utah graphs page.


Western Regional Climate Center,wrcc@dri.edu